createdAt,value
2019-04-04T00:02:13.902Z,14.53
2019-04-04T00:04:43.978Z,14.67
2019-04-04T00:07:13.913Z,14.17
2019-04-04T00:09:43.958Z,12.97
2019-04-04T00:12:14.307Z,13.47
2019-04-04T00:14:46.168Z,14.20
2019-04-04T00:17:16.289Z,13.43
2019-04-04T00:19:46.275Z,14.83
2019-04-04T00:22:16.479Z,12.70
2019-04-04T00:24:46.906Z,13.83
2019-04-04T00:27:17.665Z,14.33
2019-04-04T00:29:47.985Z,13.33
2019-04-04T00:32:20.690Z,11.23
2019-04-04T00:34:50.506Z,12.40
2019-04-04T00:37:20.648Z,10.73
2019-04-04T00:39:50.720Z,11.50
2019-04-04T00:42:20.783Z,12.67
2019-04-04T00:44:50.945Z,11.67
2019-04-04T00:47:20.903Z,13.90
2019-04-04T00:49:50.829Z,12.93
2019-04-04T00:52:20.906Z,12.60
2019-04-04T00:54:50.896Z,12.27
2019-04-04T00:57:20.949Z,11.60
2019-04-04T00:59:53.306Z,11.13
2019-04-04T01:02:23.069Z,10.77
2019-04-04T01:04:53.126Z,11.60
2019-04-04T01:07:23.203Z,11.90
2019-04-04T01:09:53.271Z,11.40
2019-04-04T01:12:23.625Z,11.63
2019-04-04T01:14:54.019Z,12.13
2019-04-04T01:17:24.095Z,11.17
2019-04-04T01:19:54.160Z,12.60
2019-04-04T01:22:25.669Z,10.43
2019-04-04T01:24:55.774Z,9.80
2019-04-04T01:27:26.117Z,11.60
2019-04-04T01:29:56.689Z,10.77
2019-04-04T01:32:27.336Z,11.07
2019-04-04T01:34:57.423Z,11.10
2019-04-04T01:37:27.890Z,9.73
2019-04-04T01:39:58.057Z,9.93
2019-04-04T01:42:28.251Z,10.33
2019-04-04T01:44:58.370Z,9.20
2019-04-04T01:47:28.811Z,8.70
2019-04-04T01:49:59.213Z,9.10
2019-04-04T01:52:29.414Z,8.63
2019-04-04T01:55:02.967Z,7.73
2019-04-04T01:57:31.309Z,8.40
2019-04-04T02:00:01.387Z,8.30
2019-04-04T02:02:32.880Z,7.70
2019-04-04T02:05:02.979Z,7.87
2019-04-04T02:07:33.120Z,8.37
2019-04-04T02:10:05.460Z,8.10
2019-04-04T02:12:50.788Z,9.77
2019-04-04T02:15:20.989Z,8.33
2019-04-04T02:17:53.008Z,8.37
2019-04-04T02:20:24.994Z,7.87
2019-04-04T02:22:55.305Z,7.50
2019-04-04T02:25:25.824Z,8.17
2019-04-04T02:27:56.635Z,8.67
2019-04-04T02:30:27.083Z,8.33
2019-04-04T02:33:00.419Z,7.77
2019-04-04T02:35:29.416Z,7.90
2019-04-04T02:37:59.561Z,8.20
2019-04-04T02:40:29.691Z,8.10
2019-04-04T02:43:00.003Z,8.80
2019-04-04T02:45:30.347Z,8.73
2019-04-04T02:48:00.498Z,8.53
2019-04-04T02:50:34.349Z,8.20
2019-04-04T02:53:03.461Z,8.30
2019-04-04T02:55:33.779Z,8.20
2019-04-04T02:58:04.757Z,7.50
2019-04-04T03:00:34.983Z,8.20
2019-04-04T03:03:08.046Z,8.30
2019-04-04T03:05:36.885Z,8.47
2019-04-04T03:08:08.139Z,8.53
2019-04-04T03:10:38.586Z,8.30
2019-04-04T03:13:09.839Z,9.57
2019-04-04T03:15:41.514Z,9.73
2019-04-04T03:18:12.421Z,9.37
2019-04-04T03:20:42.847Z,10.23
2019-04-04T03:23:12.957Z,8.53
2019-04-04T03:25:44.630Z,10.43
2019-04-04T03:28:16.092Z,12.77
2019-04-04T03:30:52.537Z,11.37
2019-04-04T03:33:18.070Z,11.73
2019-04-04T03:35:48.620Z,12.37
2019-04-04T03:38:18.832Z,13.07
2019-04-04T03:40:48.974Z,11.50
2019-04-04T03:43:19.163Z,12.73
2019-04-04T03:45:49.682Z,11.40
2019-04-04T03:48:19.774Z,11.07
2019-04-04T03:50:50.172Z,13.27
2019-04-04T03:53:21.710Z,14.03
2019-04-04T03:55:51.977Z,14.00
2019-04-04T03:58:22.147Z,11.63
2019-04-04T04:00:52.303Z,10.37
2019-04-04T04:03:26.575Z,11.90
2019-04-04T04:05:57.105Z,10.07
2019-04-04T04:08:27.340Z,9.43
2019-04-04T04:10:57.871Z,9.10
2019-04-04T04:13:27.933Z,8.50
2019-04-04T04:16:02.507Z,10.13
2019-04-04T04:18:29.856Z,10.73
2019-04-04T04:21:00.073Z,11.57
2019-04-04T04:23:30.145Z,11.97
2019-04-04T04:26:00.229Z,13.27
2019-04-04T04:28:30.377Z,11.20
2019-04-04T04:31:00.438Z,11.50
2019-04-04T04:33:30.511Z,10.80
2019-04-04T04:36:01.106Z,20.77
2019-04-04T04:38:31.532Z,10.33
2019-04-04T04:41:01.587Z,11.60
2019-04-04T04:43:33.580Z,14.17
2019-04-04T04:46:03.608Z,8.43
2019-04-04T04:48:35.308Z,9.03
2019-04-04T04:51:12.002Z,9.93
2019-04-04T04:53:41.929Z,10.23
2019-04-04T04:56:11.942Z,11.10
2019-04-04T04:58:49.529Z,10.20
2019-04-04T05:01:19.578Z,10.10
2019-04-04T05:03:50.858Z,9.53
2019-04-04T05:06:21.017Z,10.67
2019-04-04T05:08:51.102Z,9.47
2019-04-04T05:11:21.401Z,10.00
2019-04-04T05:13:52.042Z,10.70
2019-04-04T05:16:22.153Z,11.30
2019-04-04T05:18:52.437Z,11.17
2019-04-04T05:21:25.637Z,11.53
2019-04-04T05:23:55.025Z,10.97
2019-04-04T05:26:25.844Z,9.77
2019-04-04T05:28:57.165Z,10.80
2019-04-04T05:31:27.666Z,11.70
2019-04-04T05:33:59.098Z,11.53
2019-04-04T05:36:29.815Z,13.03
2019-04-04T05:38:59.888Z,12.37
2019-04-04T05:41:31.167Z,12.17
2019-04-04T05:44:01.565Z,14.60
2019-04-04T05:46:31.833Z,11.33
2019-04-04T05:49:07.912Z,11.93
2019-04-04T05:51:37.857Z,13.77
2019-04-04T05:54:08.385Z,15.83
2019-04-04T05:56:40.405Z,18.87
2019-04-04T05:59:11.007Z,19.03
2019-04-04T06:01:41.258Z,25.37
2019-04-04T06:04:11.409Z,38.57
2019-04-04T06:06:41.587Z,29.40
2019-04-04T06:09:14.002Z,29.30
2019-04-04T06:11:43.375Z,24.57
2019-04-04T06:14:13.482Z,78.13
2019-04-04T06:16:43.709Z,24.27
2019-04-04T06:19:15.272Z,28.67
2019-04-04T06:21:45.995Z,24.97
2019-04-04T06:24:17.552Z,27.10
2019-04-04T06:26:48.146Z,24.17
2019-04-04T06:29:19.691Z,23.07
2019-04-04T06:31:49.933Z,23.50
2019-04-04T06:34:20.476Z,25.57
2019-04-04T06:36:50.630Z,24.67
2019-04-04T06:39:23.011Z,26.13
2019-04-04T06:41:53.138Z,21.70
2019-04-04T06:44:23.559Z,27.80
2019-04-04T06:46:54.208Z,24.73
2019-04-04T06:49:24.683Z,22.87
2019-04-04T06:51:55.581Z,26.57
2019-04-04T06:54:26.335Z,27.03
2019-04-04T06:56:59.069Z,29.97
2019-04-04T06:59:29.055Z,21.37
2019-04-04T07:02:00.020Z,22.07
2019-04-04T07:07:52.693Z,20.23
2019-04-04T07:10:23.048Z,21.30
2019-04-04T07:13:06.197Z,19.27
2019-04-04T07:15:27.331Z,21.23
2019-04-04T07:18:05.707Z,17.63
2019-04-04T07:20:35.928Z,18.00
2019-04-04T07:23:06.831Z,15.10
2019-04-04T07:25:38.100Z,16.37
2019-04-04T07:28:10.274Z,15.60
2019-04-04T07:30:40.982Z,14.47
2019-04-04T07:33:12.714Z,15.57
2019-04-04T07:35:43.340Z,12.83
2019-04-04T07:38:13.760Z,14.77
2019-04-04T07:40:43.962Z,14.03
2019-04-04T07:43:17.128Z,15.03
2019-04-04T07:45:47.563Z,14.70
2019-04-04T07:48:18.438Z,13.40
2019-04-04T07:50:51.468Z,16.13
2019-04-04T07:53:21.735Z,13.93
2019-04-04T07:55:52.689Z,15.13
2019-04-04T07:58:23.063Z,13.77
2019-04-04T08:00:53.517Z,13.27
2019-04-04T08:03:26.710Z,12.17
2019-04-04T08:05:57.243Z,13.13
2019-04-04T08:08:27.369Z,12.30
2019-04-04T08:10:57.528Z,11.00
2019-04-04T08:13:27.803Z,11.53
2019-04-04T08:15:58.375Z,11.83
2019-04-04T08:18:29.258Z,11.87
2019-04-04T08:20:59.464Z,11.20
2019-04-04T08:23:29.858Z,10.10
2019-04-04T08:26:00.591Z,10.77
2019-04-04T08:28:31.562Z,10.90
2019-04-04T08:31:02.065Z,10.70
2019-04-04T08:33:32.535Z,9.57
2019-04-04T08:36:06.261Z,10.07
2019-04-04T08:38:34.806Z,9.63
2019-04-04T08:41:05.172Z,8.90
2019-04-04T08:43:35.628Z,7.40
2019-04-04T08:46:05.722Z,5.33
2019-04-04T08:48:36.252Z,5.30
2019-04-04T08:51:06.826Z,5.40
2019-04-04T08:53:40.538Z,5.53
2019-04-04T08:56:11.141Z,6.00
2019-04-04T08:58:46.371Z,4.93
2019-04-04T09:01:16.521Z,5.30
2019-04-04T09:03:46.787Z,6.80
2019-04-04T09:06:17.599Z,5.00
2019-04-04T09:08:47.828Z,4.60
2019-04-04T09:11:17.986Z,4.00
2019-04-04T09:13:49.351Z,4.43
2019-04-04T09:16:19.720Z,4.50
2019-04-04T09:18:50.118Z,4.00
2019-04-04T09:21:20.483Z,4.40
2019-04-04T09:23:57.299Z,4.20
2019-04-04T09:26:28.461Z,3.70
2019-04-04T09:29:01.308Z,4.10
2019-04-04T09:31:31.471Z,4.07
2019-04-04T09:34:01.931Z,4.30
2019-04-04T09:36:32.140Z,4.77
2019-04-04T09:39:02.852Z,3.70
2019-04-04T09:41:33.274Z,3.60
2019-04-04T09:44:05.847Z,3.90
2019-04-04T09:46:36.261Z,4.87
2019-04-04T09:49:06.391Z,6.70
2019-04-04T09:51:39.845Z,3.60
2019-04-04T09:54:09.926Z,3.20
2019-04-04T09:56:40.442Z,3.30
2019-04-04T09:59:10.586Z,4.23
2019-04-04T10:01:40.895Z,4.87
2019-04-04T10:04:11.097Z,3.70
2019-04-04T10:06:41.384Z,5.17
2019-04-04T10:09:16.126Z,3.80
2019-04-04T10:11:43.677Z,4.37
2019-04-04T10:14:14.096Z,3.73
2019-04-04T10:16:44.265Z,3.67
2019-04-04T10:19:14.411Z,3.60
2019-04-04T10:21:44.604Z,3.30
2019-04-04T10:24:15.294Z,3.57
2019-04-04T10:26:45.592Z,3.70
2019-04-04T10:29:15.911Z,3.70
2019-04-04T10:31:46.564Z,2.97
2019-04-04T10:34:16.968Z,4.70
2019-04-04T10:36:47.259Z,3.97
2019-04-04T10:39:28.357Z,5.63
2019-04-04T10:41:49.389Z,3.20
2019-04-04T10:44:19.516Z,3.07
2019-04-04T10:46:49.913Z,3.00
2019-04-04T10:49:20.112Z,3.87
2019-04-04T10:51:50.423Z,4.20
2019-04-04T10:54:22.055Z,4.10
2019-04-04T10:56:52.513Z,3.13
2019-04-04T10:59:24.263Z,3.77
2019-04-04T11:01:54.448Z,3.27
2019-04-04T11:04:27.899Z,3.50
2019-04-04T11:06:58.323Z,3.10
2019-04-04T11:09:40.904Z,5.87
2019-04-04T11:12:00.699Z,3.27
2019-04-04T11:14:30.732Z,3.73
2019-04-04T11:17:00.776Z,3.70
2019-04-04T11:19:31.837Z,3.37
2019-04-04T11:22:02.135Z,3.20
2019-04-04T11:24:33.504Z,3.70
2019-04-04T11:27:03.868Z,3.87
2019-04-04T11:29:34.772Z,3.43
2019-04-04T11:32:05.146Z,3.43
2019-04-04T11:34:35.809Z,3.93
2019-04-04T11:37:14.451Z,3.50
2019-04-04T11:39:54.531Z,3.23
2019-04-04T11:42:24.956Z,4.19
2019-04-04T11:44:56.552Z,3.47
2019-04-04T11:47:33.661Z,5.73
2019-04-04T11:50:04.091Z,7.13
2019-04-04T11:52:34.882Z,4.13
2019-04-04T11:55:05.302Z,3.80
2019-04-04T11:57:36.426Z,4.87
2019-04-04T12:00:08.198Z,6.73
2019-04-04T12:02:39.110Z,4.00
2019-04-04T12:05:09.977Z,4.77
2019-04-04T12:07:40.781Z,4.53
2019-04-04T12:10:10.968Z,4.40
2019-04-04T12:12:41.185Z,3.87
2019-04-04T12:15:12.129Z,5.20
2019-04-04T12:17:42.394Z,3.33
2019-04-04T12:20:12.478Z,3.97
2019-04-04T12:22:44.998Z,3.77
2019-04-04T12:25:15.579Z,3.77
2019-04-04T12:27:45.885Z,3.77
2019-04-04T12:30:20.707Z,4.03
2019-04-04T12:32:50.497Z,4.47
2019-04-04T12:35:20.573Z,4.53
2019-04-04T12:37:50.901Z,4.07
2019-04-04T12:40:21.609Z,4.37
2019-04-04T12:42:51.991Z,4.53
2019-04-04T12:45:22.054Z,4.70
2019-04-04T12:47:52.231Z,5.00
2019-04-04T12:50:24.812Z,5.67
2019-04-04T12:52:55.325Z,5.03
2019-04-04T12:55:25.794Z,5.30
2019-04-04T12:57:56.151Z,4.97
2019-04-04T13:00:26.662Z,5.47
2019-04-04T13:03:24.243Z,4.83
2019-04-04T13:05:54.372Z,5.77
2019-04-04T13:08:24.626Z,5.13
2019-04-04T13:10:55.420Z,7.63
2019-04-04T13:14:04.918Z,11.97
2019-04-04T13:16:34.924Z,9.60
2019-04-04T13:19:05.854Z,9.10
2019-04-04T13:21:35.971Z,7.80
2019-04-04T13:24:06.249Z,7.90
2019-04-04T13:26:36.788Z,10.30
2019-04-04T13:29:07.239Z,8.60
2019-04-04T13:31:37.390Z,11.20
2019-04-04T13:34:19.924Z,11.40
2019-04-04T13:36:50.335Z,12.50
2019-04-04T13:39:21.031Z,11.70
2019-04-04T13:41:51.397Z,14.10
2019-04-04T13:44:23.466Z,13.83
2019-04-04T13:46:54.622Z,13.17
2019-04-04T13:49:46.876Z,15.20
2019-04-04T13:52:17.177Z,16.57
2019-04-04T13:54:47.498Z,16.57
2019-04-04T13:57:40.696Z,15.50
2019-04-04T14:00:11.454Z,14.53
2019-04-04T14:02:42.013Z,16.67
2019-04-04T14:05:24.762Z,15.80
2019-04-04T14:07:55.242Z,14.67
2019-04-04T14:10:25.997Z,13.77
2019-04-04T14:12:56.701Z,15.87
2019-04-04T14:15:27.518Z,15.33
2019-04-04T14:17:57.854Z,16.27
2019-04-04T14:20:29.787Z,14.83
2019-04-04T14:23:00.211Z,16.80
2019-04-04T14:25:30.453Z,15.70
2019-04-04T14:28:00.907Z,18.53
2019-04-04T14:30:32.207Z,15.60
2019-04-04T14:33:03.207Z,17.00
2019-04-04T14:35:34.964Z,14.83
2019-04-04T14:38:17.225Z,16.37
2019-04-04T14:40:47.759Z,15.60
2019-04-04T14:43:18.003Z,17.13
2019-04-04T14:45:48.384Z,17.67
2019-04-04T14:48:18.784Z,18.27
2019-04-04T14:50:49.849Z,16.40
2019-04-04T14:53:20.328Z,16.40
2019-04-04T14:55:50.509Z,15.80
2019-04-04T14:58:32.774Z,16.50
2019-04-04T15:01:03.562Z,16.60
2019-04-04T15:03:44.748Z,17.17
2019-04-04T15:06:15.438Z,16.73
2019-04-04T15:08:45.593Z,17.00
2019-04-04T15:11:29.065Z,15.70
2019-04-04T15:13:59.306Z,17.43
2019-04-04T15:16:29.378Z,19.73
2019-04-04T15:19:00.340Z,20.70
2019-04-04T15:21:39.988Z,15.40
2019-04-04T15:24:12.596Z,17.40
2019-04-04T15:26:43.598Z,19.57
2019-04-04T15:29:14.111Z,16.97
2019-04-04T15:31:45.055Z,19.50
2019-04-04T15:34:16.367Z,19.67
2019-04-04T15:36:46.889Z,17.63
2019-04-04T15:39:17.420Z,19.57
2019-04-04T15:41:47.612Z,18.70
2019-04-04T15:44:18.665Z,18.07
2019-04-04T15:46:48.874Z,22.10
2019-04-04T15:49:27.207Z,16.27
2019-04-04T15:52:00.644Z,17.53
2019-04-04T15:54:30.941Z,17.27
2019-04-04T15:57:01.161Z,19.13
2019-04-04T15:59:31.356Z,18.10
2019-04-04T16:02:29.453Z,20.20
2019-04-04T16:04:59.667Z,16.60
2019-04-04T16:07:47.079Z,18.27
2019-04-04T16:10:17.420Z,17.73
2019-04-04T16:12:47.649Z,16.10
2019-04-04T16:15:17.808Z,16.30
2019-04-04T16:17:49.048Z,19.03
2019-04-04T16:20:19.308Z,16.37
2019-04-04T16:22:49.821Z,15.67
2019-04-04T16:25:20.058Z,16.90
2019-04-04T16:27:50.581Z,16.40
2019-04-04T16:30:20.945Z,15.20
2019-04-04T16:32:51.410Z,15.67
2019-04-04T16:35:21.746Z,14.73
2019-04-04T16:37:53.138Z,14.77
2019-04-04T16:40:23.371Z,16.20
2019-04-04T16:42:53.669Z,17.03
2019-04-04T16:45:24.404Z,16.37
2019-04-04T16:47:54.422Z,15.57
2019-04-04T16:50:24.610Z,13.87
2019-04-04T16:52:55.448Z,16.53
2019-04-04T16:55:25.897Z,15.20
2019-04-04T16:58:16.118Z,15.90
2019-04-04T17:00:46.584Z,14.93
2019-04-04T17:03:16.855Z,16.03
2019-04-04T17:05:46.987Z,15.27
2019-04-04T17:08:17.088Z,13.70
2019-04-04T17:10:47.575Z,16.17
2019-04-04T17:13:17.761Z,13.67
2019-04-04T17:15:47.964Z,15.93
2019-04-04T17:18:18.735Z,17.50
2019-04-04T17:20:49.465Z,15.83
2019-04-04T17:23:21.504Z,15.77
2019-04-04T17:25:52.551Z,15.43
2019-04-04T17:28:22.812Z,16.03
2019-04-04T17:30:52.930Z,15.87
2019-04-04T17:33:23.527Z,15.63
2019-04-04T17:35:53.637Z,14.83
2019-04-04T17:38:25.980Z,14.53
2019-04-04T17:40:56.414Z,13.53
2019-04-04T17:43:26.979Z,13.77
2019-04-04T17:45:57.598Z,14.47
2019-04-04T17:48:28.446Z,14.10
2019-04-04T17:51:06.406Z,13.00
2019-04-04T17:53:36.575Z,15.77
2019-04-04T17:56:06.788Z,14.17
2019-04-04T17:58:37.995Z,13.40
2019-04-04T18:01:10.190Z,12.80
2019-04-04T18:03:40.377Z,13.40
2019-04-04T18:06:11.616Z,12.70
2019-04-04T18:08:42.094Z,14.27
2019-04-04T18:11:12.391Z,17.30
2019-04-04T18:13:42.544Z,14.80
2019-04-04T18:16:12.869Z,15.10
2019-04-04T18:18:43.273Z,13.43
2019-04-04T18:21:13.453Z,12.40
2019-04-04T18:23:43.894Z,11.13
2019-04-04T18:26:14.204Z,13.43
2019-04-04T18:28:44.548Z,11.93
2019-04-04T18:31:14.668Z,13.03
2019-04-04T18:33:45.218Z,11.47
2019-04-04T18:36:15.379Z,13.90
2019-04-04T18:38:53.538Z,12.87
2019-04-04T18:41:24.118Z,12.60
2019-04-04T18:43:54.282Z,11.33
2019-04-04T18:46:25.304Z,12.03
2019-04-04T18:48:55.954Z,12.93
2019-04-04T18:51:26.210Z,12.40
2019-04-04T18:54:02.026Z,14.83
2019-04-04T18:56:32.365Z,12.13
2019-04-04T18:59:02.815Z,14.70
2019-04-04T19:01:33.160Z,10.57
2019-04-04T19:04:04.311Z,12.18
2019-04-04T19:06:34.426Z,15.60
2019-04-04T19:09:14.810Z,14.83
2019-04-04T19:11:38.865Z,12.30
2019-04-04T19:14:09.407Z,13.97
2019-04-04T19:16:39.718Z,13.57
2019-04-04T19:19:11.079Z,12.07
2019-04-04T19:21:41.374Z,15.20
2019-04-04T19:24:14.945Z,12.01
2019-04-04T19:26:46.624Z,15.80
2019-04-04T19:29:17.049Z,12.53
2019-04-04T19:31:48.479Z,11.40
2019-04-04T19:34:43.582Z,12.83
2019-04-04T19:37:14.128Z,11.40
2019-04-04T19:39:44.580Z,13.90
2019-04-04T19:42:15.010Z,11.50
2019-04-04T19:44:53.173Z,14.47
2019-04-04T19:47:19.226Z,11.83
2019-04-04T19:49:49.339Z,11.77
2019-04-04T19:52:19.484Z,12.17
2019-04-04T19:54:49.547Z,15.23
2019-04-04T19:57:19.627Z,13.40
2019-04-04T19:59:49.743Z,13.90
2019-04-04T20:02:19.760Z,13.07
2019-04-04T20:04:50.146Z,13.33
2019-04-04T20:07:20.702Z,12.27
2019-04-04T20:09:50.954Z,13.97
2019-04-04T20:12:21.509Z,18.67
2019-04-04T20:14:53.099Z,15.67
2019-04-04T20:17:23.551Z,12.87
2019-04-04T20:19:54.051Z,13.60
2019-04-04T20:22:26.722Z,13.82
2019-04-04T20:24:57.589Z,16.37
2019-04-04T20:27:27.978Z,16.70
2019-04-04T20:29:58.083Z,14.50
2019-04-04T20:32:28.520Z,14.97
2019-04-04T20:34:58.705Z,15.67
2019-04-04T20:37:32.882Z,15.14
2019-04-04T20:40:04.887Z,16.20
2019-04-04T20:42:41.925Z,14.70
2019-04-04T20:45:14.121Z,15.70
2019-04-04T20:47:44.654Z,17.20
2019-04-04T20:50:16.955Z,17.83
2019-04-04T20:52:49.573Z,15.76
2019-04-04T20:55:20.733Z,18.10
2019-04-04T20:57:51.439Z,16.30
2019-04-04T21:00:22.233Z,20.20
2019-04-04T21:02:52.430Z,18.37
2019-04-04T21:05:23.111Z,16.47
2019-04-04T21:07:53.391Z,18.50
2019-04-04T21:10:23.551Z,17.80
2019-04-04T21:12:56.932Z,17.03
2019-04-04T21:15:27.410Z,15.33
2019-04-04T21:17:59.445Z,17.53
2019-04-04T21:20:29.840Z,15.03
2019-04-04T21:23:00.677Z,15.90
2019-04-04T21:25:30.945Z,17.57
2019-04-04T21:28:01.468Z,13.97
2019-04-04T21:30:31.679Z,14.20
2019-04-04T21:33:39.639Z,15.87
2019-04-04T21:36:47.480Z,13.57
2019-04-04T21:39:20.844Z,15.73
2019-04-04T21:41:51.101Z,14.43
2019-04-04T21:44:21.967Z,15.93
2019-04-04T21:46:52.325Z,14.00
2019-04-04T21:49:22.534Z,15.20
2019-04-04T21:51:53.199Z,16.07
2019-04-04T21:54:23.332Z,14.93
2019-04-04T21:56:54.982Z,13.73
2019-04-04T21:59:25.287Z,15.33
2019-04-04T22:01:55.635Z,14.50
2019-04-04T22:04:26.325Z,14.70
2019-04-04T22:07:20.593Z,13.70
2019-04-04T22:09:45.243Z,16.13
2019-04-04T22:12:15.432Z,16.27
2019-04-04T22:14:46.203Z,15.53
2019-04-04T22:17:26.817Z,16.40
2019-04-04T22:19:58.528Z,15.83
2019-04-04T22:22:29.011Z,14.47
2019-04-04T22:24:59.525Z,16.27
2019-04-04T22:27:29.637Z,13.37
2019-04-04T22:29:59.794Z,11.63
2019-04-04T22:32:29.926Z,12.17
2019-04-04T22:35:00.172Z,13.93
2019-04-04T22:37:30.770Z,11.77
2019-04-04T22:40:00.975Z,14.87
2019-04-04T22:42:31.489Z,12.93
2019-04-04T22:45:01.650Z,13.53
2019-04-04T22:47:31.815Z,12.47
2019-04-04T22:50:01.889Z,10.80
2019-04-04T22:52:33.658Z,11.33
2019-04-04T22:55:03.956Z,12.80
2019-04-04T22:57:34.285Z,13.00
2019-04-04T23:00:05.098Z,14.17
2019-04-04T23:02:36.615Z,12.73
2019-04-04T23:05:06.778Z,12.53
2019-04-04T23:07:37.028Z,16.57
2019-04-04T23:10:07.562Z,12.77
2019-04-04T23:12:38.872Z,12.67
2019-04-04T23:15:10.087Z,12.33
2019-04-04T23:17:40.094Z,12.67
2019-04-04T23:20:10.149Z,13.70
2019-04-04T23:22:52.140Z,12.10
2019-04-04T23:25:12.434Z,10.87
2019-04-04T23:27:42.520Z,12.23
2019-04-04T23:30:13.510Z,11.37
2019-04-04T23:32:43.680Z,12.60
2019-04-04T23:35:16.516Z,10.87
2019-04-04T23:37:45.924Z,9.00
2019-04-04T23:40:15.970Z,9.23
2019-04-04T23:42:46.268Z,10.13
2019-04-04T23:45:16.466Z,9.00
2019-04-04T23:47:46.618Z,10.00
2019-04-04T23:50:16.798Z,7.57
2019-04-04T23:52:46.931Z,8.43
2019-04-04T23:55:17.522Z,10.63
2019-04-04T23:57:47.789Z,10.50
